createdAt,value
2023-01-19T00:01:14.613Z,97203.88
2023-01-19T00:03:43.267Z,97198.84
2023-01-19T00:06:12.060Z,97212.38
2023-01-19T00:08:40.538Z,97209.81
2023-01-19T00:11:08.861Z,97212.44
2023-01-19T00:13:38.118Z,97208.19
2023-01-19T00:16:08.745Z,97213.34
2023-01-19T00:18:36.935Z,97212.47
2023-01-19T00:21:05.548Z,97212.53
2023-01-19T00:23:33.749Z,97210.88
2023-01-19T00:26:01.946Z,97216.81
2023-01-19T00:28:30.164Z,97210.09
2023-01-19T00:30:58.433Z,97216.84
2023-01-19T00:33:51.642Z,97220.22
2023-01-19T00:36:20.650Z,97216.09
2023-01-19T00:38:49.284Z,97216.09
2023-01-19T00:41:17.892Z,97222.06
2023-01-19T00:43:45.554Z,97225.41
2023-01-19T00:46:15.612Z,97222.94
2023-01-19T00:48:49.975Z,97223.84
2023-01-19T00:51:18.388Z,97224.66
2023-01-19T00:57:36.830Z,97220.59
2023-01-19T01:00:07.243Z,97223.13
2023-01-19T01:02:36.794Z,97223.94
2023-01-19T01:05:08.579Z,97228.19
2023-01-19T01:07:40.796Z,97231.56
2023-01-19T01:10:11.744Z,97229.97
2023-01-19T01:12:41.305Z,97223.22
2023-01-19T01:15:23.948Z,97220.75
2023-01-19T01:17:53.096Z,97224.88
2023-01-19T01:20:27.145Z,97227.53
2023-01-19T01:22:57.804Z,97230.06
2023-01-19T01:25:28.589Z,97233.44
2023-01-19T01:27:56.866Z,97237.72
2023-01-19T01:30:25.433Z,97231.81
2023-01-19T01:32:53.683Z,97231.91
2023-01-19T01:35:23.373Z,97236.88
2023-01-19T01:37:51.701Z,97240.31
2023-01-19T01:40:20.815Z,97237.88
2023-01-19T01:42:49.021Z,97238.69
2023-01-19T01:45:33.872Z,97242.13
2023-01-19T01:48:09.732Z,97239.66
2023-01-19T01:51:06.803Z,97240.44
2023-01-19T01:53:37.571Z,97241.31
2023-01-19T01:56:11.328Z,97238.75
2023-01-19T01:58:41.171Z,97235.38
2023-01-19T02:01:29.145Z,97240.41
2023-01-19T02:03:58.747Z,97241.25
2023-01-19T02:06:28.642Z,97242.97
2023-01-19T02:09:19.740Z,97240.47
2023-01-19T02:12:06.225Z,97239.69
2023-01-19T02:14:37.411Z,97237.09
2023-01-19T02:17:05.889Z,97237.22
2023-01-19T02:19:40.375Z,97231.38
2023-01-19T02:22:17.834Z,97233.84
2023-01-19T02:24:49.955Z,97234.69
2023-01-19T02:27:18.993Z,97234.72
2023-01-19T02:29:47.455Z,97232.25
2023-01-19T02:32:15.908Z,97226.31
2023-01-19T02:34:44.284Z,97232.22
2023-01-19T02:37:15.768Z,97232.22
2023-01-19T02:39:51.277Z,97230.47
2023-01-19T02:42:23.851Z,97234.69
2023-01-19T02:44:55.849Z,97249.06
2023-01-19T02:47:24.527Z,97243.22
2023-01-19T02:49:57.550Z,97254.97
2023-01-19T02:52:26.770Z,97242.34
2023-01-19T02:55:05.962Z,97247.41
2023-01-19T02:57:49.910Z,97244.00
2023-01-19T03:00:34.158Z,97253.31
2023-01-19T03:03:23.837Z,97249.19
2023-01-19T03:05:59.109Z,97251.72
2023-01-19T03:08:44.923Z,97247.50
2023-01-19T03:11:16.076Z,97249.19
2023-01-19T03:13:50.062Z,97240.81
2023-01-19T03:16:23.030Z,97243.34
2023-01-19T03:18:55.977Z,97239.09
2023-01-19T03:21:31.435Z,97242.50
2023-01-19T03:24:04.300Z,97247.56
2023-01-19T03:26:40.168Z,97237.47
2023-01-19T03:29:11.646Z,97240.91
2023-01-19T03:31:41.531Z,97244.25
2023-01-19T03:34:13.353Z,97250.13
2023-01-19T03:36:46.035Z,97241.78
2023-01-19T03:39:20.347Z,97248.53
2023-01-19T03:41:53.390Z,97244.25
2023-01-19T03:44:21.751Z,97251.03
2023-01-19T03:46:50.430Z,97253.56
2023-01-19T03:49:19.512Z,97256.22
2023-01-19T03:51:48.262Z,97256.16
2023-01-19T03:54:16.453Z,97257.00
2023-01-19T03:56:44.817Z,97251.13
2023-01-19T03:59:17.532Z,97257.03
2023-01-19T04:01:46.048Z,97254.56
2023-01-19T04:04:15.552Z,97257.09
2023-01-19T04:06:44.503Z,97256.28
2023-01-19T04:09:12.851Z,97259.66
2023-01-19T04:11:41.197Z,97267.22
2023-01-19T04:14:09.417Z,97261.34
2023-01-19T04:16:39.081Z,97275.66
2023-01-19T04:19:07.368Z,97273.19
2023-01-19T04:21:35.896Z,97273.28
2023-01-19T04:24:04.401Z,97275.81
2023-01-19T04:26:32.827Z,97274.13
2023-01-19T04:29:01.133Z,97274.97
2023-01-19T04:31:29.930Z,97275.88
2023-01-19T04:33:59.973Z,97281.72
2023-01-19T04:36:28.498Z,97282.59
2023-01-19T04:38:56.720Z,97277.56
2023-01-19T04:41:25.082Z,97289.41
2023-01-19T04:43:53.401Z,97276.78
2023-01-19T04:46:21.560Z,97282.66
2023-01-19T04:48:49.844Z,97284.34
2023-01-19T04:51:19.462Z,97284.34
2023-01-19T04:53:47.794Z,97284.34
2023-01-19T04:56:16.182Z,97289.44
2023-01-19T04:58:44.446Z,97290.25
2023-01-19T05:01:12.850Z,97286.00
2023-01-19T05:03:41.328Z,97290.22
2023-01-19T05:06:09.811Z,97280.16
2023-01-19T05:08:39.569Z,97288.59
2023-01-19T05:11:08.120Z,97295.28
2023-01-19T05:13:36.502Z,97291.94
2023-01-19T05:16:06.230Z,97292.78
2023-01-19T05:18:37.072Z,97293.56
2023-01-19T05:21:06.312Z,97287.63
2023-01-19T05:23:34.956Z,97296.00
2023-01-19T05:26:06.816Z,97291.00
2023-01-19T05:28:35.915Z,97299.34
2023-01-19T05:31:04.559Z,97299.31
2023-01-19T05:33:33.033Z,97301.09
2023-01-19T05:36:01.513Z,97293.50
2023-01-19T05:38:35.401Z,97303.56
2023-01-19T05:41:05.820Z,97311.97
2023-01-19T05:43:34.220Z,97304.41
2023-01-19T05:46:03.899Z,97310.28
2023-01-19T05:48:32.382Z,97304.38
2023-01-19T05:51:01.587Z,97295.09
2023-01-19T05:53:30.374Z,97308.59
2023-01-19T05:56:02.253Z,97316.16
2023-01-19T05:58:34.329Z,97313.59
2023-01-19T06:01:05.809Z,97312.72
2023-01-19T06:03:35.464Z,97316.88
2023-01-19T06:06:04.976Z,97315.19
2023-01-19T06:08:33.615Z,97321.13
2023-01-19T06:11:02.004Z,97325.34
2023-01-19T06:13:31.750Z,97331.25
2023-01-19T06:16:00.596Z,97337.97
2023-01-19T06:18:29.563Z,97333.81
2023-01-19T06:20:59.595Z,97340.50
2023-01-19T06:23:28.387Z,97335.38
2023-01-19T06:25:56.895Z,97342.03
2023-01-19T06:28:25.711Z,97341.22
2023-01-19T06:30:57.463Z,97342.97
2023-01-19T06:33:27.840Z,97344.66
2023-01-19T06:35:57.189Z,97345.44
2023-01-19T06:38:25.512Z,97347.97
2023-01-19T06:40:55.555Z,97347.13
2023-01-19T06:43:24.145Z,97347.13
2023-01-19T06:45:53.478Z,97349.66
2023-01-19T06:48:23.802Z,97353.06
2023-01-19T06:50:52.436Z,97345.44
2023-01-19T06:53:22.288Z,97351.34
2023-01-19T06:55:50.774Z,97358.91
2023-01-19T06:58:19.499Z,97367.31
2023-01-19T07:00:48.912Z,97353.88
2023-01-19T07:03:21.743Z,97363.97
2023-01-19T07:05:54.948Z,97350.47
2023-01-19T07:08:23.560Z,97351.34
2023-01-19T07:11:26.030Z,97353.84
2023-01-19T07:13:41.621Z,97343.75
2023-01-19T07:16:12.442Z,97350.47
2023-01-19T07:18:41.958Z,97351.34
2023-01-19T07:21:11.553Z,97355.50
2023-01-19T07:23:39.884Z,97359.75
2023-01-19T07:26:08.174Z,97355.50
2023-01-19T07:28:37.046Z,97350.47
2023-01-19T07:31:05.759Z,97356.38
2023-01-19T07:33:34.267Z,97355.47
2023-01-19T07:36:02.671Z,97359.56
2023-01-19T07:38:32.600Z,97363.78
2023-01-19T07:41:05.515Z,97364.59
2023-01-19T07:43:34.438Z,97372.22
2023-01-19T07:46:07.024Z,97367.09
2023-01-19T07:48:35.573Z,97367.03
2023-01-19T07:51:10.424Z,97363.72
2023-01-19T07:53:42.375Z,97367.09
2023-01-19T07:56:11.296Z,97368.72
2023-01-19T07:58:39.832Z,97367.06
2023-01-19T08:01:09.495Z,97376.25
2023-01-19T08:03:38.515Z,97370.41
2023-01-19T08:06:08.126Z,97380.47
2023-01-19T08:08:36.526Z,97384.63
2023-01-19T08:11:06.637Z,97387.16
2023-01-19T08:13:35.053Z,97384.56
2023-01-19T08:16:03.457Z,97391.28
2023-01-19T08:18:31.767Z,97390.41
2023-01-19T08:21:00.455Z,97393.72
2023-01-19T08:23:29.373Z,97397.03
2023-01-19T08:25:57.636Z,97394.38
2023-01-19T08:28:27.486Z,97406.06
2023-01-19T08:30:56.091Z,97415.34
2023-01-19T08:33:25.600Z,97407.72
2023-01-19T08:35:55.260Z,97405.94
2023-01-19T08:38:24.724Z,97405.00
2023-01-19T08:40:53.349Z,97410.16
2023-01-19T08:43:21.658Z,97414.34
2023-01-19T08:45:53.913Z,97420.28
2023-01-19T08:48:25.090Z,97411.81
2023-01-19T08:50:54.541Z,97419.44
2023-01-19T08:53:24.131Z,97422.81
2023-01-19T08:55:55.844Z,97424.41
2023-01-19T08:58:24.969Z,97432.03
2023-01-19T09:00:54.954Z,97426.03
2023-01-19T09:03:23.840Z,97426.78
2023-01-19T09:05:52.303Z,97423.41
2023-01-19T09:08:22.160Z,97431.81
2023-01-19T09:10:52.785Z,97427.59
2023-01-19T09:13:21.932Z,97431.66
2023-01-19T09:15:51.049Z,97426.56
2023-01-19T09:18:23.147Z,97429.91
2023-01-19T09:20:52.380Z,97430.63
2023-01-19T09:23:22.539Z,97433.84
2023-01-19T09:25:57.751Z,97433.72
2023-01-19T09:28:26.811Z,97432.75
2023-01-19T09:30:55.337Z,97438.66
2023-01-19T09:33:25.753Z,97432.75
2023-01-19T09:35:54.019Z,97436.94
2023-01-19T09:38:23.923Z,97434.31
2023-01-19T09:40:56.070Z,97434.28
2023-01-19T09:43:37.946Z,97433.31
2023-01-19T09:46:13.682Z,97426.41
2023-01-19T09:48:48.587Z,97428.91
2023-01-19T09:51:20.968Z,97424.66
2023-01-19T09:54:07.682Z,97433.03
2023-01-19T09:56:36.202Z,97433.72
2023-01-19T09:59:22.367Z,97440.44
2023-01-19T10:02:19.882Z,97442.00
2023-01-19T10:05:00.339Z,97431.78
2023-01-19T10:07:53.385Z,97429.97
2023-01-19T10:10:25.751Z,97426.50
2023-01-19T10:13:10.572Z,97428.16
2023-01-19T10:15:50.367Z,97419.69
2023-01-19T10:18:25.239Z,97424.59
2023-01-19T10:21:00.185Z,97433.88
2023-01-19T10:23:49.265Z,97436.28
2023-01-19T10:26:22.158Z,97436.06
2023-01-19T10:28:54.804Z,97431.81
2023-01-19T10:31:25.907Z,97427.59
2023-01-19T10:33:55.133Z,97419.19
2023-01-19T10:36:30.852Z,97425.09
2023-01-19T10:38:59.665Z,97422.56
2023-01-19T10:41:42.824Z,97420.84
2023-01-19T10:44:12.417Z,97419.97
2023-01-19T10:46:45.615Z,97420.75
2023-01-19T10:49:28.808Z,97419.00
2023-01-19T10:52:00.301Z,97413.00
2023-01-19T10:54:31.809Z,97417.19
2023-01-19T10:57:03.468Z,97413.00
2023-01-19T10:59:38.403Z,97411.31
2023-01-19T11:02:20.203Z,97413.81
2023-01-19T11:04:52.871Z,97418.75
2023-01-19T11:07:25.267Z,97417.13
2023-01-19T11:10:21.888Z,97412.88
2023-01-19T11:13:02.368Z,97410.25
2023-01-19T11:15:35.614Z,97412.66
2023-01-19T11:18:06.328Z,97417.59
2023-01-19T11:20:52.344Z,97412.41
2023-01-19T11:23:28.209Z,97413.25
2023-01-19T11:26:01.223Z,97415.63
2023-01-19T11:28:35.594Z,97417.16
2023-01-19T11:31:18.454Z,97422.16
2023-01-19T11:33:53.203Z,97421.09
2023-01-19T11:36:23.891Z,97410.06
2023-01-19T11:38:56.744Z,97410.88
2023-01-19T11:41:30.123Z,97403.22
2023-01-19T11:44:03.232Z,97400.56
2023-01-19T11:46:35.252Z,97403.84
2023-01-19T11:49:06.788Z,97396.19
2023-01-19T11:51:42.905Z,97391.16
2023-01-19T11:54:23.636Z,97391.16
2023-01-19T11:56:53.187Z,97404.66
2023-01-19T11:59:24.847Z,97388.56
2023-01-19T12:01:57.916Z,97388.44
2023-01-19T12:04:30.733Z,97391.78
2023-01-19T12:07:07.554Z,97391.66
2023-01-19T12:09:43.635Z,97387.41
2023-01-19T12:12:19.309Z,97385.78
2023-01-19T12:14:58.495Z,97389.16
2023-01-19T12:17:29.980Z,97390.84
2023-01-19T12:20:07.516Z,97397.41
2023-01-19T12:22:49.498Z,97396.69
2023-01-19T12:25:23.969Z,97395.94
2023-01-19T12:27:54.333Z,97400.25
2023-01-19T12:30:26.058Z,97397.75
2023-01-19T12:33:39.767Z,97402.00
2023-01-19T12:36:14.141Z,97393.50
2023-01-19T12:38:47.731Z,97401.84
2023-01-19T12:41:27.657Z,97406.84
2023-01-19T12:44:23.662Z,97405.94
2023-01-19T12:46:55.964Z,97408.44
2023-01-19T12:49:33.624Z,97400.28
2023-01-19T12:52:28.010Z,97403.91
2023-01-19T12:55:16.843Z,97420.09
2023-01-19T12:57:55.163Z,97406.31
2023-01-19T13:00:37.597Z,97413.19
2023-01-19T13:03:48.163Z,97415.09
2023-01-19T13:06:17.780Z,97421.75
2023-01-19T13:09:00.990Z,97420.78
2023-01-19T13:11:34.363Z,97421.84
2023-01-19T13:14:38.911Z,97418.44
2023-01-19T13:17:28.536Z,97415.16
2023-01-19T13:20:27.324Z,97425.28
2023-01-19T13:23:21.907Z,97416.91
2023-01-19T13:26:02.817Z,97423.72
2023-01-19T13:28:43.556Z,97423.81
2023-01-19T13:31:13.445Z,97428.91
2023-01-19T13:33:50.368Z,97431.38
2023-01-19T13:36:28.657Z,97423.81
2023-01-19T13:39:01.488Z,97431.38
2023-01-19T13:41:32.684Z,97434.81
2023-01-19T13:44:04.668Z,97426.25
2023-01-19T13:46:34.319Z,97428.84
2023-01-19T13:49:10.860Z,97422.97
2023-01-19T13:51:39.402Z,97431.44
2023-01-19T13:54:17.332Z,97437.38
2023-01-19T13:56:50.188Z,97431.50
2023-01-19T13:59:18.664Z,97436.53
2023-01-19T14:01:49.263Z,97430.63
2023-01-19T14:04:36.189Z,97444.97
2023-01-19T14:07:13.954Z,97437.38
2023-01-19T14:09:43.752Z,97444.97
2023-01-19T14:12:15.015Z,97449.16
2023-01-19T14:14:44.268Z,97444.13
2023-01-19T14:17:25.592Z,97443.25
2023-01-19T14:19:56.342Z,97449.22
2023-01-19T14:22:40.876Z,97439.06
2023-01-19T14:25:34.389Z,97441.59
2023-01-19T14:28:39.485Z,97439.06
2023-01-19T14:31:22.304Z,97440.72
2023-01-19T14:33:53.045Z,97439.88
2023-01-19T14:36:30.146Z,97447.50
2023-01-19T14:39:01.919Z,97438.19
2023-01-19T14:41:49.613Z,97442.44
2023-01-19T14:44:26.006Z,97433.13
2023-01-19T14:46:55.235Z,97441.59
2023-01-19T14:49:34.763Z,97437.38
2023-01-19T14:52:07.788Z,97442.44
2023-01-19T14:54:40.322Z,97443.25
2023-01-19T14:57:13.807Z,97443.31
2023-01-19T14:59:42.318Z,97444.13
2023-01-19T15:02:10.533Z,97447.50
2023-01-19T15:04:38.905Z,97443.31
2023-01-19T15:07:08.265Z,97437.28
2023-01-19T15:09:36.703Z,97444.91
2023-01-19T15:12:05.464Z,97446.63
2023-01-19T15:14:35.361Z,97434.75
2023-01-19T15:17:03.582Z,97437.28
2023-01-19T15:19:31.888Z,97439.06
2023-01-19T15:22:00.351Z,97439.91
2023-01-19T15:24:28.598Z,97444.97
2023-01-19T15:27:01.553Z,97434.88
2023-01-19T15:29:32.120Z,97442.44
2023-01-19T15:32:02.305Z,97438.25
2023-01-19T15:34:31.651Z,97436.53
2023-01-19T15:37:00.554Z,97427.22
2023-01-19T15:39:28.842Z,97430.56
2023-01-19T15:41:57.056Z,97430.56
2023-01-19T15:44:25.372Z,97428.84
2023-01-19T15:46:54.738Z,97429.69
2023-01-19T15:49:24.482Z,97428.03
2023-01-19T15:51:53.070Z,97425.47
2023-01-19T15:54:21.408Z,97431.47
2023-01-19T15:56:49.757Z,97436.53
2023-01-19T15:59:18.164Z,97437.38
2023-01-19T16:01:46.770Z,97431.50
2023-01-19T16:04:17.822Z,97422.25
2023-01-19T16:06:47.611Z,97427.34
2023-01-19T16:09:18.495Z,97431.53
2023-01-19T16:11:47.094Z,97429.00
2023-01-19T16:14:17.408Z,97431.53
2023-01-19T16:16:46.144Z,97425.63
2023-01-19T16:19:16.569Z,97431.56
2023-01-19T16:21:44.907Z,97430.78
2023-01-19T16:24:14.705Z,97435.88
2023-01-19T16:26:43.105Z,97433.34
2023-01-19T16:29:11.844Z,97433.34
2023-01-19T16:31:42.211Z,97430.00
2023-01-19T16:34:11.398Z,97428.34
2023-01-19T16:36:42.647Z,97429.19
2023-01-19T16:39:15.228Z,97424.09
2023-01-19T16:41:45.194Z,97433.47
2023-01-19T16:44:14.898Z,97444.50
2023-01-19T16:46:45.475Z,97446.22
2023-01-19T16:49:16.464Z,97442.03
2023-01-19T16:51:45.060Z,97444.59
2023-01-19T16:54:16.842Z,97442.97
2023-01-19T16:56:45.469Z,97448.03
2023-01-19T16:59:15.979Z,97448.06
2023-01-19T17:01:46.148Z,97445.56
2023-01-19T17:04:15.263Z,97450.66
2023-01-19T17:06:43.851Z,97449.84
2023-01-19T17:09:12.285Z,97443.16
2023-01-19T17:11:42.067Z,97446.50
2023-01-19T17:14:14.301Z,97446.50
2023-01-19T17:16:43.441Z,97438.94
2023-01-19T17:19:16.401Z,97443.16
2023-01-19T17:21:46.976Z,97449.09
2023-01-19T17:24:15.714Z,97449.09
2023-01-19T17:26:48.452Z,97450.75
2023-01-19T17:29:17.634Z,97445.69
2023-01-19T17:31:46.900Z,97451.66
2023-01-19T17:34:15.245Z,97446.63
2023-01-19T17:36:43.612Z,97445.81
2023-01-19T17:39:16.748Z,97444.97
2023-01-19T17:41:47.517Z,97444.97
2023-01-19T17:44:17.208Z,97447.56
2023-01-19T17:46:45.481Z,97448.47
2023-01-19T17:49:13.793Z,97451.00
2023-01-19T17:51:42.085Z,97448.50
2023-01-19T17:54:10.941Z,97449.34
2023-01-19T17:56:41.218Z,97451.88
2023-01-19T17:59:10.923Z,97447.69
2023-01-19T18:01:40.397Z,97455.38
2023-01-19T18:04:10.253Z,97452.00
2023-01-19T18:06:39.284Z,97455.41
2023-01-19T18:09:08.239Z,97457.13
2023-01-19T18:11:37.254Z,97451.22
2023-01-19T18:14:06.639Z,97452.94
2023-01-19T18:16:37.007Z,97458.06
2023-01-19T18:19:05.423Z,97455.53
2023-01-19T18:21:33.761Z,97458.94
2023-01-19T18:24:04.282Z,97464.91
2023-01-19T18:26:35.067Z,97464.06
2023-01-19T18:29:03.966Z,97460.75
2023-01-19T18:31:32.515Z,97454.03
2023-01-19T18:34:02.255Z,97455.69
2023-01-19T18:36:32.131Z,97457.41
2023-01-19T18:39:00.548Z,97459.94
2023-01-19T18:41:29.917Z,97453.16
2023-01-19T18:43:59.585Z,97457.41
2023-01-19T18:46:28.266Z,97462.47
2023-01-19T18:48:56.489Z,97454.09
2023-01-19T18:51:26.452Z,97459.16
2023-01-19T18:53:54.913Z,97453.25
2023-01-19T18:56:23.200Z,97460.88
2023-01-19T18:58:52.234Z,97455.81
2023-01-19T19:01:24.930Z,97458.34
2023-01-19T19:03:53.755Z,97453.28
2023-01-19T19:06:22.810Z,97452.41
2023-01-19T19:08:53.577Z,97452.41
2023-01-19T19:11:24.010Z,97450.75
2023-01-19T19:13:58.254Z,97453.25
2023-01-19T19:16:27.168Z,97457.47
2023-01-19T19:18:55.592Z,97457.44
2023-01-19T19:21:25.247Z,97458.28
2023-01-19T19:23:57.081Z,97463.41
2023-01-19T19:26:27.894Z,97453.22
2023-01-19T19:28:56.354Z,97459.16
2023-01-19T19:31:26.944Z,97457.41
2023-01-19T19:33:56.977Z,97465.00
2023-01-19T19:36:27.136Z,97468.38
2023-01-19T19:38:56.965Z,97467.53
2023-01-19T19:41:27.830Z,97467.56
2023-01-19T19:43:56.790Z,97469.25
2023-01-19T19:46:26.797Z,97472.63
2023-01-19T19:48:55.373Z,97476.03
2023-01-19T19:51:27.075Z,97470.13
2023-01-19T19:53:59.617Z,97476.03
2023-01-19T19:56:31.146Z,97473.53
2023-01-19T19:59:00.963Z,97471.00
2023-01-19T20:01:33.468Z,97481.16
2023-01-19T20:04:07.979Z,97477.75
2023-01-19T20:06:38.728Z,97482.00
2023-01-19T20:09:12.729Z,97478.63
2023-01-19T20:11:42.677Z,97472.75
2023-01-19T20:14:14.140Z,97472.75
2023-01-19T20:16:42.422Z,97472.75
2023-01-19T20:19:11.809Z,97477.00
2023-01-19T20:21:42.831Z,97474.47
2023-01-19T20:24:16.080Z,97477.84
2023-01-19T20:26:48.504Z,97478.66
2023-01-19T20:29:17.064Z,97487.09
2023-01-19T20:31:48.248Z,97484.53
2023-01-19T20:34:19.577Z,97479.44
2023-01-19T20:36:50.149Z,97482.88
2023-01-19T20:39:20.934Z,97482.88
2023-01-19T20:41:51.372Z,97486.22
2023-01-19T20:44:22.494Z,97490.41
2023-01-19T20:46:51.534Z,97492.13
2023-01-19T20:49:20.179Z,97489.63
2023-01-19T20:51:50.069Z,97493.00
2023-01-19T20:54:23.146Z,97494.72
2023-01-19T20:56:51.530Z,97499.78
2023-01-19T20:59:20.428Z,97496.38
2023-01-19T21:01:49.720Z,97503.09
2023-01-19T21:04:18.567Z,97508.16
2023-01-19T21:06:46.855Z,97508.16
2023-01-19T21:09:15.185Z,97509.88
2023-01-19T21:11:44.833Z,97511.56
2023-01-19T21:14:13.160Z,97511.56
2023-01-19T21:16:42.493Z,97513.28
2023-01-19T21:19:11.928Z,97523.47
2023-01-19T21:21:40.501Z,97517.56
2023-01-19T21:24:11.168Z,97515.88
2023-01-19T21:26:41.537Z,97534.44
2023-01-19T21:29:13.977Z,97532.78
2023-01-19T21:31:42.888Z,97532.78
2023-01-19T21:36:39.718Z,97533.59
2023-01-19T21:39:09.021Z,97536.97
2023-01-19T21:41:39.762Z,97530.25
2023-01-19T21:44:08.010Z,97536.16
2023-01-19T21:46:37.756Z,97534.50
2023-01-19T21:49:08.227Z,97529.41
2023-01-19T21:51:38.159Z,97530.31
2023-01-19T21:54:07.744Z,97541.31
2023-01-19T21:56:37.800Z,97541.38
2023-01-19T21:59:06.426Z,97538.00
2023-01-19T22:01:37.190Z,97543.94
2023-01-19T22:04:06.077Z,97542.28
2023-01-19T22:06:34.755Z,97545.72
2023-01-19T22:09:03.216Z,97556.69
2023-01-19T22:11:32.406Z,97549.13
2023-01-19T22:14:01.015Z,97553.31
2023-01-19T22:16:30.561Z,97551.66
2023-01-19T22:19:02.630Z,97560.97
2023-01-19T22:21:34.956Z,97551.72
2023-01-19T22:24:05.662Z,97561.00
2023-01-19T22:26:40.142Z,97562.72
2023-01-19T22:29:11.101Z,97553.41
2023-01-19T22:31:41.436Z,97559.34
2023-01-19T22:34:11.756Z,97556.81
2023-01-19T22:36:40.232Z,97559.34
2023-01-19T22:39:10.918Z,97567.00
2023-01-19T22:41:41.828Z,97561.91
2023-01-19T22:44:14.263Z,97561.09
2023-01-19T22:46:43.175Z,97561.13
2023-01-19T22:49:16.096Z,97562.81
2023-01-19T22:51:45.550Z,97564.47
2023-01-19T22:54:14.459Z,97561.13
2023-01-19T22:56:43.172Z,97561.94
2023-01-19T22:59:11.416Z,97569.53
2023-01-19T23:01:42.029Z,97571.25
2023-01-19T23:04:15.762Z,97566.19
2023-01-19T23:06:46.845Z,97561.13
2023-01-19T23:09:16.249Z,97557.75
2023-01-19T23:11:50.039Z,97574.63
2023-01-19T23:14:22.097Z,97568.72
2023-01-19T23:16:50.545Z,97564.53
2023-01-19T23:19:20.599Z,97574.63
2023-01-19T23:21:52.247Z,97574.63
2023-01-19T23:24:20.514Z,97569.59
2023-01-19T23:26:50.330Z,97572.13
2023-01-19T23:29:19.594Z,97572.13
2023-01-19T23:31:49.864Z,97572.94
2023-01-19T23:34:19.463Z,97572.94
2023-01-19T23:36:47.730Z,97573.78
2023-01-19T23:39:19.844Z,97574.63
2023-01-19T23:41:49.140Z,97577.97
2023-01-19T23:44:18.196Z,97578.84
2023-01-19T23:46:47.057Z,97587.28
2023-01-19T23:49:15.327Z,97585.59
2023-01-19T23:51:45.033Z,97590.66
2023-01-19T23:54:13.377Z,97585.59
2023-01-19T23:56:42.585Z,97594.88
2023-01-19T23:59:12.974Z,97587.28
